sensor_id;sensor_type;location;lat;lon;timestamp;P1;durP1;ratioP1;P2;durP2;ratioP2
52057;SDS011;38063;53.210;6.504;2022-10-19T00:01:41;10.57;;;3.42;;
52057;SDS011;38063;53.210;6.504;2022-10-19T00:04:06;12.02;;;6.00;;
52057;SDS011;38063;53.210;6.504;2022-10-19T00:06:33;5.72;;;2.53;;
52057;SDS011;38063;53.210;6.504;2022-10-19T00:09:01;7.97;;;2.63;;
52057;SDS011;38063;53.210;6.504;2022-10-19T00:11:28;9.52;;;4.78;;
52057;SDS011;38063;53.210;6.504;2022-10-19T00:13:55;11.80;;;3.60;;
52057;SDS011;38063;53.210;6.504;2022-10-19T00:16:22;15.13;;;4.50;;
52057;SDS011;38063;53.210;6.504;2022-10-19T00:18:49;12.13;;;4.63;;
52057;SDS011;38063;53.210;6.504;2022-10-19T00:21:15;8.23;;;3.63;;
52057;SDS011;38063;53.210;6.504;2022-10-19T00:23:43;12.63;;;3.72;;
52057;SDS011;38063;53.210;6.504;2022-10-19T00:26:09;10.32;;;2.53;;
52057;SDS011;38063;53.210;6.504;2022-10-19T00:28:36;7.93;;;1.75;;
52057;SDS011;38063;53.210;6.504;2022-10-19T00:31:08;5.03;;;2.33;;
52057;SDS011;38063;53.210;6.504;2022-10-19T00:33:40;8.50;;;1.83;;
52057;SDS011;38063;53.210;6.504;2022-10-19T00:36:11;7.68;;;2.03;;
52057;SDS011;38063;53.210;6.504;2022-10-19T00:38:40;7.78;;;1.67;;
52057;SDS011;38063;53.210;6.504;2022-10-19T00:41:06;9.50;;;1.65;;
52057;SDS011;38063;53.210;6.504;2022-10-19T00:43:48;6.60;;;1.50;;
52057;SDS011;38063;53.210;6.504;2022-10-19T00:46:17;5.00;;;1.50;;
52057;SDS011;38063;53.210;6.504;2022-10-19T00:48:43;4.05;;;1.30;;
52057;SDS011;38063;53.210;6.504;2022-10-19T00:51:09;11.52;;;2.30;;
52057;SDS011;38063;53.210;6.504;2022-10-19T00:53:34;7.30;;;1.83;;
52057;SDS011;38063;53.210;6.504;2022-10-19T00:56:02;8.20;;;2.03;;
52057;SDS011;38063;53.210;6.504;2022-10-19T00:58:31;10.38;;;1.70;;
52057;SDS011;38063;53.210;6.504;2022-10-19T01:00:58;9.40;;;1.25;;
52057;SDS011;38063;53.210;6.504;2022-10-19T01:03:27;6.15;;;1.15;;
52057;SDS011;38063;53.210;6.504;2022-10-19T01:05:52;6.63;;;1.33;;
52057;SDS011;38063;53.210;6.504;2022-10-19T01:08:19;4.88;;;1.52;;
52057;SDS011;38063;53.210;6.504;2022-10-19T01:13:57;8.55;;;1.70;;
52057;SDS011;38063;53.210;6.504;2022-10-19T01:16:41;8.00;;;1.50;;
52057;SDS011;38063;53.210;6.504;2022-10-19T01:22:06;9.63;;;1.45;;
52057;SDS011;38063;53.210;6.504;2022-10-19T01:24:58;6.57;;;1.23;;
52057;SDS011;38063;53.210;6.504;2022-10-19T01:33:49;8.00;;;1.40;;
52057;SDS011;38063;53.210;6.504;2022-10-19T01:36:49;5.63;;;1.45;;
52057;SDS011;38063;53.210;6.504;2022-10-19T01:39:26;7.32;;;1.25;;
52057;SDS011;38063;53.210;6.504;2022-10-19T01:42:15;5.82;;;1.23;;
52057;SDS011;38063;53.210;6.504;2022-10-19T01:50:05;9.02;;;1.55;;
52057;SDS011;38063;53.210;6.504;2022-10-19T01:52:37;6.15;;;1.55;;
52057;SDS011;38063;53.210;6.504;2022-10-19T01:55:06;9.68;;;2.08;;
52057;SDS011;38063;53.210;6.504;2022-10-19T01:57:35;7.72;;;1.35;;
52057;SDS011;38063;53.210;6.504;2022-10-19T02:00:06;8.85;;;1.90;;
52057;SDS011;38063;53.210;6.504;2022-10-19T02:02:36;5.15;;;1.20;;
52057;SDS011;38063;53.210;6.504;2022-10-19T02:05:06;5.65;;;1.27;;
52057;SDS011;38063;53.210;6.504;2022-10-19T02:07:34;4.60;;;1.20;;
52057;SDS011;38063;53.210;6.504;2022-10-19T02:10:01;7.05;;;1.20;;
52057;SDS011;38063;53.210;6.504;2022-10-19T02:12:27;6.90;;;1.63;;
52057;SDS011;38063;53.210;6.504;2022-10-19T02:14:57;7.93;;;1.23;;
52057;SDS011;38063;53.210;6.504;2022-10-19T02:17:27;8.77;;;1.50;;
52057;SDS011;38063;53.210;6.504;2022-10-19T02:19:59;8.13;;;2.13;;
52057;SDS011;38063;53.210;6.504;2022-10-19T02:22:26;10.30;;;2.00;;
52057;SDS011;38063;53.210;6.504;2022-10-19T02:24:52;7.30;;;1.42;;
52057;SDS011;38063;53.210;6.504;2022-10-19T02:27:18;5.18;;;1.50;;
52057;SDS011;38063;53.210;6.504;2022-10-19T02:29:43;7.63;;;1.58;;
52057;SDS011;38063;53.210;6.504;2022-10-19T02:32:09;8.45;;;1.77;;
52057;SDS011;38063;53.210;6.504;2022-10-19T02:34:36;12.27;;;1.60;;
52057;SDS011;38063;53.210;6.504;2022-10-19T02:37:02;5.65;;;1.30;;
52057;SDS011;38063;53.210;6.504;2022-10-19T02:39:29;5.90;;;1.25;;
52057;SDS011;38063;53.210;6.504;2022-10-19T02:44:25;6.75;;;1.40;;
52057;SDS011;38063;53.210;6.504;2022-10-19T02:46:57;6.70;;;1.23;;
52057;SDS011;38063;53.210;6.504;2022-10-19T02:49:26;7.55;;;1.30;;
52057;SDS011;38063;53.210;6.504;2022-10-19T02:54:23;9.80;;;1.90;;
52057;SDS011;38063;53.210;6.504;2022-10-19T02:56:49;9.73;;;1.45;;
52057;SDS011;38063;53.210;6.504;2022-10-19T02:59:15;8.93;;;1.30;;
52057;SDS011;38063;53.210;6.504;2022-10-19T03:01:41;5.95;;;1.52;;
52057;SDS011;38063;53.210;6.504;2022-10-19T03:04:07;7.10;;;1.13;;
52057;SDS011;38063;53.210;6.504;2022-10-19T03:06:32;8.55;;;1.52;;
52057;SDS011;38063;53.210;6.504;2022-10-19T03:08:58;11.07;;;1.95;;
52057;SDS011;38063;53.210;6.504;2022-10-19T03:11:23;7.57;;;1.75;;
52057;SDS011;38063;53.210;6.504;2022-10-19T03:13:49;7.53;;;1.52;;
52057;SDS011;38063;53.210;6.504;2022-10-19T03:16:15;8.65;;;1.73;;
52057;SDS011;38063;53.210;6.504;2022-10-19T03:18:40;8.13;;;2.08;;
52057;SDS011;38063;53.210;6.504;2022-10-19T03:21:07;7.38;;;1.67;;
52057;SDS011;38063;53.210;6.504;2022-10-19T03:23:36;5.70;;;1.83;;
52057;SDS011;38063;53.210;6.504;2022-10-19T03:26:03;6.18;;;1.38;;
52057;SDS011;38063;53.210;6.504;2022-10-19T03:28:30;6.10;;;1.40;;
52057;SDS011;38063;53.210;6.504;2022-10-19T03:30:56;13.50;;;1.70;;
52057;SDS011;38063;53.210;6.504;2022-10-19T03:33:21;5.13;;;1.33;;
52057;SDS011;38063;53.210;6.504;2022-10-19T03:35:47;7.55;;;1.27;;
52057;SDS011;38063;53.210;6.504;2022-10-19T03:38:13;6.63;;;1.40;;
52057;SDS011;38063;53.210;6.504;2022-10-19T03:40:39;10.32;;;1.60;;
52057;SDS011;38063;53.210;6.504;2022-10-19T03:43:04;8.95;;;1.60;;
52057;SDS011;38063;53.210;6.504;2022-10-19T03:45:30;15.02;;;1.70;;
52057;SDS011;38063;53.210;6.504;2022-10-19T03:47:56;9.70;;;2.75;;
52057;SDS011;38063;53.210;6.504;2022-10-19T03:50:21;12.98;;;1.63;;
52057;SDS011;38063;53.210;6.504;2022-10-19T03:52:47;9.52;;;1.50;;
52057;SDS011;38063;53.210;6.504;2022-10-19T03:55:13;6.97;;;1.48;;
52057;SDS011;38063;53.210;6.504;2022-10-19T03:57:40;8.25;;;1.48;;
52057;SDS011;38063;53.210;6.504;2022-10-19T04:00:06;6.05;;;2.10;;
52057;SDS011;38063;53.210;6.504;2022-10-19T04:02:33;9.93;;;2.05;;
52057;SDS011;38063;53.210;6.504;2022-10-19T04:04:59;6.53;;;1.42;;
52057;SDS011;38063;53.210;6.504;2022-10-19T04:07:24;11.18;;;1.77;;
52057;SDS011;38063;53.210;6.504;2022-10-19T04:09:50;7.55;;;1.20;;
52057;SDS011;38063;53.210;6.504;2022-10-19T04:12:15;12.60;;;2.00;;
52057;SDS011;38063;53.210;6.504;2022-10-19T04:14:41;9.80;;;1.75;;
52057;SDS011;38063;53.210;6.504;2022-10-19T04:17:07;9.35;;;1.92;;
52057;SDS011;38063;53.210;6.504;2022-10-19T04:19:33;8.82;;;1.80;;
52057;SDS011;38063;53.210;6.504;2022-10-19T04:21:59;13.30;;;1.75;;
52057;SDS011;38063;53.210;6.504;2022-10-19T04:24:25;8.70;;;1.52;;
52057;SDS011;38063;53.210;6.504;2022-10-19T04:26:51;12.95;;;1.60;;
52057;SDS011;38063;53.210;6.504;2022-10-19T04:29:19;11.82;;;2.22;;
52057;SDS011;38063;53.210;6.504;2022-10-19T04:31:47;9.35;;;2.60;;
52057;SDS011;38063;53.210;6.504;2022-10-19T04:34:13;13.07;;;1.83;;
52057;SDS011;38063;53.210;6.504;2022-10-19T04:36:39;14.73;;;1.88;;
52057;SDS011;38063;53.210;6.504;2022-10-19T04:39:05;12.65;;;2.00;;
52057;SDS011;38063;53.210;6.504;2022-10-19T04:41:31;9.80;;;1.30;;
52057;SDS011;38063;53.210;6.504;2022-10-19T04:43:58;8.68;;;1.60;;
52057;SDS011;38063;53.210;6.504;2022-10-19T04:46:26;11.98;;;1.65;;
52057;SDS011;38063;53.210;6.504;2022-10-19T04:48:53;15.60;;;1.88;;
52057;SDS011;38063;53.210;6.504;2022-10-19T04:51:20;8.52;;;1.38;;
52057;SDS011;38063;53.210;6.504;2022-10-19T04:53:47;19.75;;;2.53;;
52057;SDS011;38063;53.210;6.504;2022-10-19T04:56:14;10.13;;;1.77;;
52057;SDS011;38063;53.210;6.504;2022-10-19T04:58:41;12.15;;;2.53;;
52057;SDS011;38063;53.210;6.504;2022-10-19T05:01:11;13.93;;;1.80;;
52057;SDS011;38063;53.210;6.504;2022-10-19T05:03:42;15.43;;;2.15;;
52057;SDS011;38063;53.210;6.504;2022-10-19T05:06:09;10.45;;;1.73;;
52057;SDS011;38063;53.210;6.504;2022-10-19T05:08:35;12.80;;;2.05;;
52057;SDS011;38063;53.210;6.504;2022-10-19T05:11:02;14.90;;;1.90;;
52057;SDS011;38063;53.210;6.504;2022-10-19T05:13:33;9.50;;;1.73;;
52057;SDS011;38063;53.210;6.504;2022-10-19T05:16:00;7.80;;;1.42;;
52057;SDS011;38063;53.210;6.504;2022-10-19T05:18:27;10.35;;;2.10;;
52057;SDS011;38063;53.210;6.504;2022-10-19T05:23:34;9.88;;;2.50;;
52057;SDS011;38063;53.210;6.504;2022-10-19T05:26:04;10.82;;;1.80;;
52057;SDS011;38063;53.210;6.504;2022-10-19T05:28:31;10.75;;;1.60;;
52057;SDS011;38063;53.210;6.504;2022-10-19T05:31:04;9.68;;;1.83;;
52057;SDS011;38063;53.210;6.504;2022-10-19T05:33:37;10.60;;;1.27;;
52057;SDS011;38063;53.210;6.504;2022-10-19T05:36:20;6.68;;;1.67;;
52057;SDS011;38063;53.210;6.504;2022-10-19T05:38:50;9.50;;;1.45;;
52057;SDS011;38063;53.210;6.504;2022-10-19T05:41:17;11.30;;;1.75;;
52057;SDS011;38063;53.210;6.504;2022-10-19T05:43:46;8.85;;;1.65;;
52057;SDS011;38063;53.210;6.504;2022-10-19T05:46:16;13.80;;;2.22;;
52057;SDS011;38063;53.210;6.504;2022-10-19T05:48:42;10.20;;;1.80;;
52057;SDS011;38063;53.210;6.504;2022-10-19T05:51:10;13.00;;;2.03;;
52057;SDS011;38063;53.210;6.504;2022-10-19T05:53:38;9.25;;;1.67;;
52057;SDS011;38063;53.210;6.504;2022-10-19T05:56:05;11.70;;;1.73;;
52057;SDS011;38063;53.210;6.504;2022-10-19T05:58:32;7.03;;;1.83;;
52057;SDS011;38063;53.210;6.504;2022-10-19T06:00:59;8.93;;;1.98;;
52057;SDS011;38063;53.210;6.504;2022-10-19T06:03:26;11.20;;;1.65;;
52057;SDS011;38063;53.210;6.504;2022-10-19T06:05:52;11.43;;;1.90;;
52057;SDS011;38063;53.210;6.504;2022-10-19T06:08:18;10.95;;;1.98;;
52057;SDS011;38063;53.210;6.504;2022-10-19T06:10:45;8.30;;;1.48;;
52057;SDS011;38063;53.210;6.504;2022-10-19T06:13:12;12.23;;;1.83;;
52057;SDS011;38063;53.210;6.504;2022-10-19T06:15:38;10.52;;;1.63;;
52057;SDS011;38063;53.210;6.504;2022-10-19T06:18:08;11.82;;;2.55;;
52057;SDS011;38063;53.210;6.504;2022-10-19T06:20:36;12.80;;;2.45;;
52057;SDS011;38063;53.210;6.504;2022-10-19T06:23:03;12.25;;;2.20;;
52057;SDS011;38063;53.210;6.504;2022-10-19T06:25:30;10.95;;;1.35;;
52057;SDS011;38063;53.210;6.504;2022-10-19T06:27:56;10.23;;;1.58;;
52057;SDS011;38063;53.210;6.504;2022-10-19T06:30:22;11.82;;;1.42;;
52057;SDS011;38063;53.210;6.504;2022-10-19T06:32:49;9.23;;;1.70;;
52057;SDS011;38063;53.210;6.504;2022-10-19T06:35:14;18.10;;;1.90;;
52057;SDS011;38063;53.210;6.504;2022-10-19T06:37:40;8.13;;;1.45;;
52057;SDS011;38063;53.210;6.504;2022-10-19T06:40:06;7.20;;;1.65;;
52057;SDS011;38063;53.210;6.504;2022-10-19T06:42:32;9.35;;;1.77;;
52057;SDS011;38063;53.210;6.504;2022-10-19T06:44:58;8.95;;;2.00;;
52057;SDS011;38063;53.210;6.504;2022-10-19T06:47:23;10.75;;;1.52;;
52057;SDS011;38063;53.210;6.504;2022-10-19T06:49:55;11.40;;;2.08;;
52057;SDS011;38063;53.210;6.504;2022-10-19T06:52:21;7.38;;;1.58;;
52057;SDS011;38063;53.210;6.504;2022-10-19T06:54:47;10.30;;;1.95;;
52057;SDS011;38063;53.210;6.504;2022-10-19T06:57:12;11.25;;;1.45;;
52057;SDS011;38063;53.210;6.504;2022-10-19T06:59:38;8.82;;;1.35;;
52057;SDS011;38063;53.210;6.504;2022-10-19T07:02:04;9.68;;;1.80;;
52057;SDS011;38063;53.210;6.504;2022-10-19T07:04:29;10.30;;;1.88;;
52057;SDS011;38063;53.210;6.504;2022-10-19T07:06:55;14.43;;;1.50;;
52057;SDS011;38063;53.210;6.504;2022-10-19T07:09:20;7.50;;;1.30;;
52057;SDS011;38063;53.210;6.504;2022-10-19T07:11:46;11.30;;;1.55;;
52057;SDS011;38063;53.210;6.504;2022-10-19T07:14:12;8.70;;;1.77;;
52057;SDS011;38063;53.210;6.504;2022-10-19T07:16:38;11.07;;;1.80;;
52057;SDS011;38063;53.210;6.504;2022-10-19T07:19:04;7.03;;;1.38;;
52057;SDS011;38063;53.210;6.504;2022-10-19T07:21:30;8.05;;;1.45;;
52057;SDS011;38063;53.210;6.504;2022-10-19T07:23:55;8.73;;;1.55;;
52057;SDS011;38063;53.210;6.504;2022-10-19T07:26:22;10.52;;;1.65;;
52057;SDS011;38063;53.210;6.504;2022-10-19T07:28:51;6.90;;;1.88;;
52057;SDS011;38063;53.210;6.504;2022-10-19T07:31:20;9.77;;;1.50;;
52057;SDS011;38063;53.210;6.504;2022-10-19T07:33:50;7.40;;;1.42;;
52057;SDS011;38063;53.210;6.504;2022-10-19T07:36:20;10.13;;;1.38;;
52057;SDS011;38063;53.210;6.504;2022-10-19T07:38:47;15.00;;;1.65;;
52057;SDS011;38063;53.210;6.504;2022-10-19T07:41:13;6.95;;;1.20;;
52057;SDS011;38063;53.210;6.504;2022-10-19T07:43:41;10.20;;;1.52;;
52057;SDS011;38063;53.210;6.504;2022-10-19T07:46:12;9.73;;;2.05;;
52057;SDS011;38063;53.210;6.504;2022-10-19T07:48:40;9.00;;;1.35;;
52057;SDS011;38063;53.210;6.504;2022-10-19T07:51:07;6.55;;;1.38;;
52057;SDS011;38063;53.210;6.504;2022-10-19T07:53:34;8.25;;;1.70;;
52057;SDS011;38063;53.210;6.504;2022-10-19T07:58:48;12.18;;;2.08;;
52057;SDS011;38063;53.210;6.504;2022-10-19T08:01:16;12.73;;;1.85;;
52057;SDS011;38063;53.210;6.504;2022-10-19T08:03:46;12.65;;;1.58;;
52057;SDS011;38063;53.210;6.504;2022-10-19T08:06:14;8.30;;;1.52;;
52057;SDS011;38063;53.210;6.504;2022-10-19T08:08:41;7.88;;;1.77;;
52057;SDS011;38063;53.210;6.504;2022-10-19T08:11:12;8.27;;;1.63;;
52057;SDS011;38063;53.210;6.504;2022-10-19T08:13:38;7.53;;;1.40;;
52057;SDS011;38063;53.210;6.504;2022-10-19T08:16:04;15.25;;;1.33;;
52057;SDS011;38063;53.210;6.504;2022-10-19T08:18:42;9.82;;;1.67;;
52057;SDS011;38063;53.210;6.504;2022-10-19T08:21:08;10.15;;;1.95;;
52057;SDS011;38063;53.210;6.504;2022-10-19T08:23:34;6.57;;;1.17;;
52057;SDS011;38063;53.210;6.504;2022-10-19T08:25:59;7.47;;;1.73;;
52057;SDS011;38063;53.210;6.504;2022-10-19T08:28:25;11.18;;;1.90;;
52057;SDS011;38063;53.210;6.504;2022-10-19T08:30:50;8.35;;;1.73;;
52057;SDS011;38063;53.210;6.504;2022-10-19T08:33:21;6.22;;;1.02;;
52057;SDS011;38063;53.210;6.504;2022-10-19T08:35:47;11.38;;;1.73;;
52057;SDS011;38063;53.210;6.504;2022-10-19T08:38:13;7.15;;;1.20;;
52057;SDS011;38063;53.210;6.504;2022-10-19T08:40:38;9.32;;;1.35;;
52057;SDS011;38063;53.210;6.504;2022-10-19T08:43:07;6.75;;;1.40;;
52057;SDS011;38063;53.210;6.504;2022-10-19T08:45:42;8.23;;;1.63;;
52057;SDS011;38063;53.210;6.504;2022-10-19T08:48:28;12.82;;;1.60;;
52057;SDS011;38063;53.210;6.504;2022-10-19T08:50:57;10.75;;;1.20;;
52057;SDS011;38063;53.210;6.504;2022-10-19T08:56:20;4.47;;;1.30;;
52057;SDS011;38063;53.210;6.504;2022-10-19T09:01:43;11.30;;;1.83;;
52057;SDS011;38063;53.210;6.504;2022-10-19T09:04:32;9.00;;;1.60;;
52057;SDS011;38063;53.210;6.504;2022-10-19T09:09:56;10.82;;;1.70;;
52057;SDS011;38063;53.210;6.504;2022-10-19T09:13:11;7.85;;;1.25;;
52057;SDS011;38063;53.210;6.504;2022-10-19T09:15:26;8.05;;;1.30;;
52057;SDS011;38063;53.210;6.504;2022-10-19T09:18:13;20.90;;;3.15;;
52057;SDS011;38063;53.210;6.504;2022-10-19T09:20:46;13.60;;;1.63;;
52057;SDS011;38063;53.210;6.504;2022-10-19T09:25:53;5.97;;;1.23;;
52057;SDS011;38063;53.210;6.504;2022-10-19T09:30:52;13.73;;;1.63;;
52057;SDS011;38063;53.210;6.504;2022-10-19T09:33:27;8.20;;;1.77;;
52057;SDS011;38063;53.210;6.504;2022-10-19T09:35:56;8.88;;;2.28;;
52057;SDS011;38063;53.210;6.504;2022-10-19T09:38:26;10.15;;;1.48;;
52057;SDS011;38063;53.210;6.504;2022-10-19T09:40:56;7.50;;;1.80;;
52057;SDS011;38063;53.210;6.504;2022-10-19T09:43:23;8.50;;;1.45;;
52057;SDS011;38063;53.210;6.504;2022-10-19T09:45:58;11.15;;;2.10;;
52057;SDS011;38063;53.210;6.504;2022-10-19T09:48:48;6.22;;;1.40;;
52057;SDS011;38063;53.210;6.504;2022-10-19T09:51:16;7.95;;;1.92;;
52057;SDS011;38063;53.210;6.504;2022-10-19T09:53:45;10.98;;;1.70;;
52057;SDS011;38063;53.210;6.504;2022-10-19T09:56:24;7.35;;;1.20;;
52057;SDS011;38063;53.210;6.504;2022-10-19T09:58:55;13.30;;;1.45;;
52057;SDS011;38063;53.210;6.504;2022-10-19T10:04:08;5.47;;;1.48;;
52057;SDS011;38063;53.210;6.504;2022-10-19T10:06:38;8.88;;;1.40;;
52057;SDS011;38063;53.210;6.504;2022-10-19T10:09:04;7.85;;;1.80;;
52057;SDS011;38063;53.210;6.504;2022-10-19T10:11:32;7.38;;;1.50;;
52057;SDS011;38063;53.210;6.504;2022-10-19T10:14:04;9.25;;;1.40;;
52057;SDS011;38063;53.210;6.504;2022-10-19T10:16:47;6.60;;;1.33;;
52057;SDS011;38063;53.210;6.504;2022-10-19T10:19:14;10.75;;;1.45;;
52057;SDS011;38063;53.210;6.504;2022-10-19T10:21:50;9.25;;;1.67;;
52057;SDS011;38063;53.210;6.504;2022-10-19T10:24:20;5.55;;;1.60;;
52057;SDS011;38063;53.210;6.504;2022-10-19T10:26:49;9.43;;;1.30;;
52057;SDS011;38063;53.210;6.504;2022-10-19T10:31:47;11.70;;;1.40;;
52057;SDS011;38063;53.210;6.504;2022-10-19T10:36:58;9.18;;;1.55;;
52057;SDS011;38063;53.210;6.504;2022-10-19T10:39:25;5.88;;;1.40;;
52057;SDS011;38063;53.210;6.504;2022-10-19T10:41:52;6.63;;;1.20;;
52057;SDS011;38063;53.210;6.504;2022-10-19T10:44:22;10.77;;;2.45;;
52057;SDS011;38063;53.210;6.504;2022-10-19T10:46:54;7.95;;;1.75;;
52057;SDS011;38063;53.210;6.504;2022-10-19T10:49:25;9.27;;;1.50;;
52057;SDS011;38063;53.210;6.504;2022-10-19T10:51:56;8.25;;;1.13;;
52057;SDS011;38063;53.210;6.504;2022-10-19T10:54:25;5.75;;;1.20;;
52057;SDS011;38063;53.210;6.504;2022-10-19T10:57:01;12.15;;;1.15;;
52057;SDS011;38063;53.210;6.504;2022-10-19T11:02:48;5.85;;;1.00;;
52057;SDS011;38063;53.210;6.504;2022-10-19T11:08:11;7.00;;;1.60;;
52057;SDS011;38063;53.210;6.504;2022-10-19T11:10:46;10.68;;;1.33;;
52057;SDS011;38063;53.210;6.504;2022-10-19T11:13:37;10.25;;;1.52;;
52057;SDS011;38063;53.210;6.504;2022-10-19T11:16:11;13.13;;;1.73;;
52057;SDS011;38063;53.210;6.504;2022-10-19T11:18:43;6.50;;;1.45;;
52057;SDS011;38063;53.210;6.504;2022-10-19T11:21:25;9.57;;;1.40;;
52057;SDS011;38063;53.210;6.504;2022-10-19T11:24:17;11.18;;;1.45;;
52057;SDS011;38063;53.210;6.504;2022-10-19T11:27:06;8.45;;;1.45;;
52057;SDS011;38063;53.210;6.504;2022-10-19T11:32:36;9.27;;;1.77;;
52057;SDS011;38063;53.210;6.504;2022-10-19T11:35:34;9.82;;;1.50;;
52057;SDS011;38063;53.210;6.504;2022-10-19T11:38:13;10.38;;;1.77;;
52057;SDS011;38063;53.210;6.504;2022-10-19T11:43:40;11.38;;;1.52;;
52057;SDS011;38063;53.210;6.504;2022-10-19T11:49:17;10.07;;;1.65;;
52057;SDS011;38063;53.210;6.504;2022-10-19T11:52:06;7.00;;;1.45;;
52057;SDS011;38063;53.210;6.504;2022-10-19T11:54:40;8.68;;;1.13;;
52057;SDS011;38063;53.210;6.504;2022-10-19T11:57:18;11.07;;;1.63;;
52057;SDS011;38063;53.210;6.504;2022-10-19T12:00:00;6.53;;;1.50;;
52057;SDS011;38063;53.210;6.504;2022-10-19T12:05:32;7.88;;;1.48;;
52057;SDS011;38063;53.210;6.504;2022-10-19T12:14:02;7.22;;;1.42;;
52057;SDS011;38063;53.210;6.504;2022-10-19T12:16:37;6.75;;;1.20;;
52057;SDS011;38063;53.210;6.504;2022-10-19T12:19:05;8.70;;;1.77;;
52057;SDS011;38063;53.210;6.504;2022-10-19T12:21:39;9.27;;;1.65;;
52057;SDS011;38063;53.210;6.504;2022-10-19T12:24:17;9.02;;;1.50;;
52057;SDS011;38063;53.210;6.504;2022-10-19T12:26:46;6.65;;;1.35;;
52057;SDS011;38063;53.210;6.504;2022-10-19T12:29:15;4.15;;;1.35;;
52057;SDS011;38063;53.210;6.504;2022-10-19T12:31:45;6.90;;;1.10;;
52057;SDS011;38063;53.210;6.504;2022-10-19T12:40:15;13.20;;;1.60;;
52057;SDS011;38063;53.210;6.504;2022-10-19T12:43:03;10.52;;;1.83;;
52057;SDS011;38063;53.210;6.504;2022-10-19T12:45:54;6.43;;;1.30;;
52057;SDS011;38063;53.210;6.504;2022-10-19T12:48:45;7.75;;;1.50;;
52057;SDS011;38063;53.210;6.504;2022-10-19T12:51:49;8.80;;;1.30;;
52057;SDS011;38063;53.210;6.504;2022-10-19T12:54:16;5.03;;;1.30;;
52057;SDS011;38063;53.210;6.504;2022-10-19T12:56:48;6.00;;;1.20;;
52057;SDS011;38063;53.210;6.504;2022-10-19T12:59:24;8.20;;;1.80;;
52057;SDS011;38063;53.210;6.504;2022-10-19T13:01:58;8.60;;;1.90;;
52057;SDS011;38063;53.210;6.504;2022-10-19T13:04:26;6.97;;;1.25;;
52057;SDS011;38063;53.210;6.504;2022-10-19T13:07:06;7.00;;;1.42;;
52057;SDS011;38063;53.210;6.504;2022-10-19T13:09:38;7.25;;;1.50;;
52057;SDS011;38063;53.210;6.504;2022-10-19T13:14:48;6.13;;;1.45;;
52057;SDS011;38063;53.210;6.504;2022-10-19T13:22:43;8.87;;;1.67;;
52057;SDS011;38063;53.210;6.504;2022-10-19T13:27:51;9.52;;;1.75;;
52057;SDS011;38063;53.210;6.504;2022-10-19T13:41:12;7.25;;;1.33;;
52057;SDS011;38063;53.210;6.504;2022-10-19T13:43:59;6.88;;;1.65;;
52057;SDS011;38063;53.210;6.504;2022-10-19T13:52:12;5.78;;;1.15;;
52057;SDS011;38063;53.210;6.504;2022-10-19T14:04:02;11.88;;;1.40;;
52057;SDS011;38063;53.210;6.504;2022-10-19T14:09:27;9.00;;;1.30;;
52057;SDS011;38063;53.210;6.504;2022-10-19T14:12:14;11.02;;;1.30;;
52057;SDS011;38063;53.210;6.504;2022-10-19T14:14:46;6.75;;;1.70;;
52057;SDS011;38063;53.210;6.504;2022-10-19T14:17:16;7.03;;;1.33;;
52057;SDS011;38063;53.210;6.504;2022-10-19T14:19:48;7.00;;;1.38;;
52057;SDS011;38063;53.210;6.504;2022-10-19T14:22:28;6.68;;;1.42;;
52057;SDS011;38063;53.210;6.504;2022-10-19T14:25:05;5.30;;;1.40;;
52057;SDS011;38063;53.210;6.504;2022-10-19T14:27:41;8.75;;;1.25;;
52057;SDS011;38063;53.210;6.504;2022-10-19T14:33:06;6.22;;;1.15;;
52057;SDS011;38063;53.210;6.504;2022-10-19T14:35:35;7.18;;;1.27;;
52057;SDS011;38063;53.210;6.504;2022-10-19T14:38:04;9.05;;;1.45;;
52057;SDS011;38063;53.210;6.504;2022-10-19T14:40:33;7.93;;;1.17;;
52057;SDS011;38063;53.210;6.504;2022-10-19T14:43:20;5.43;;;1.38;;
52057;SDS011;38063;53.210;6.504;2022-10-19T14:48:32;4.22;;;1.85;;
52057;SDS011;38063;53.210;6.504;2022-10-19T14:50:59;6.75;;;1.77;;
52057;SDS011;38063;53.210;6.504;2022-10-19T14:53:31;6.15;;;1.40;;
52057;SDS011;38063;53.210;6.504;2022-10-19T14:56:03;7.83;;;1.40;;
52057;SDS011;38063;53.210;6.504;2022-10-19T15:01:31;5.30;;;2.10;;
52057;SDS011;38063;53.210;6.504;2022-10-19T15:03:58;7.65;;;2.08;;
52057;SDS011;38063;53.210;6.504;2022-10-19T15:06:28;8.43;;;1.83;;
52057;SDS011;38063;53.210;6.504;2022-10-19T15:08:59;7.72;;;2.20;;
52057;SDS011;38063;53.210;6.504;2022-10-19T15:11:37;11.85;;;1.85;;
52057;SDS011;38063;53.210;6.504;2022-10-19T15:14:08;6.30;;;2.25;;
52057;SDS011;38063;53.210;6.504;2022-10-19T15:19:29;6.70;;;2.10;;
52057;SDS011;38063;53.210;6.504;2022-10-19T15:24:38;6.78;;;2.63;;
52057;SDS011;38063;53.210;6.504;2022-10-19T15:27:08;7.35;;;2.53;;
52057;SDS011;38063;53.210;6.504;2022-10-19T15:29:45;6.32;;;2.38;;
52057;SDS011;38063;53.210;6.504;2022-10-19T15:32:33;6.35;;;2.10;;
52057;SDS011;38063;53.210;6.504;2022-10-19T15:35:10;8.65;;;3.15;;
52057;SDS011;38063;53.210;6.504;2022-10-19T15:37:42;6.95;;;2.95;;
52057;SDS011;38063;53.210;6.504;2022-10-19T15:40:10;10.48;;;3.20;;
52057;SDS011;38063;53.210;6.504;2022-10-19T15:42:42;11.10;;;2.80;;
52057;SDS011;38063;53.210;6.504;2022-10-19T15:48:24;10.75;;;3.38;;
52057;SDS011;38063;53.210;6.504;2022-10-19T15:51:34;8.48;;;3.58;;
52057;SDS011;38063;53.210;6.504;2022-10-19T15:54:01;9.18;;;3.95;;
52057;SDS011;38063;53.210;6.504;2022-10-19T15:56:29;9.98;;;4.20;;
52057;SDS011;38063;53.210;6.504;2022-10-19T15:58:57;10.55;;;4.28;;
52057;SDS011;38063;53.210;6.504;2022-10-19T16:01:25;5.53;;;3.50;;
52057;SDS011;38063;53.210;6.504;2022-10-19T16:03:52;7.13;;;3.85;;
52057;SDS011;38063;53.210;6.504;2022-10-19T16:06:19;8.68;;;3.88;;
52057;SDS011;38063;53.210;6.504;2022-10-19T16:08:46;9.32;;;4.18;;
52057;SDS011;38063;53.210;6.504;2022-10-19T16:11:12;10.57;;;4.90;;
52057;SDS011;38063;53.210;6.504;2022-10-19T16:13:39;8.80;;;4.20;;
52057;SDS011;38063;53.210;6.504;2022-10-19T16:16:05;10.30;;;3.90;;
52057;SDS011;38063;53.210;6.504;2022-10-19T16:18:33;8.57;;;4.05;;
52057;SDS011;38063;53.210;6.504;2022-10-19T16:20:58;11.02;;;4.15;;
52057;SDS011;38063;53.210;6.504;2022-10-19T16:23:24;9.55;;;4.60;;
52057;SDS011;38063;53.210;6.504;2022-10-19T16:25:50;9.65;;;4.18;;
52057;SDS011;38063;53.210;6.504;2022-10-19T16:28:17;8.50;;;4.38;;
52057;SDS011;38063;53.210;6.504;2022-10-19T16:30:43;11.18;;;5.10;;
52057;SDS011;38063;53.210;6.504;2022-10-19T16:33:09;8.98;;;5.07;;
52057;SDS011;38063;53.210;6.504;2022-10-19T16:35:36;9.55;;;5.53;;
52057;SDS011;38063;53.210;6.504;2022-10-19T16:38:02;15.77;;;5.40;;
52057;SDS011;38063;53.210;6.504;2022-10-19T16:40:28;11.00;;;6.30;;
52057;SDS011;38063;53.210;6.504;2022-10-19T16:42:54;8.35;;;5.35;;
52057;SDS011;38063;53.210;6.504;2022-10-19T16:45:22;6.45;;;5.63;;
52057;SDS011;38063;53.210;6.504;2022-10-19T16:47:49;10.48;;;5.35;;
52057;SDS011;38063;53.210;6.504;2022-10-19T16:50:16;8.20;;;5.15;;
52057;SDS011;38063;53.210;6.504;2022-10-19T16:52:41;8.88;;;6.10;;
52057;SDS011;38063;53.210;6.504;2022-10-19T16:55:07;10.43;;;6.22;;
52057;SDS011;38063;53.210;6.504;2022-10-19T16:57:33;13.27;;;5.80;;
52057;SDS011;38063;53.210;6.504;2022-10-19T16:59:59;7.65;;;5.50;;
52057;SDS011;38063;53.210;6.504;2022-10-19T17:02:24;14.45;;;6.10;;
52057;SDS011;38063;53.210;6.504;2022-10-19T17:04:50;11.57;;;5.57;;
52057;SDS011;38063;53.210;6.504;2022-10-19T17:07:16;7.35;;;5.07;;
52057;SDS011;38063;53.210;6.504;2022-10-19T17:09:43;8.93;;;5.10;;
52057;SDS011;38063;53.210;6.504;2022-10-19T17:12:08;10.02;;;5.68;;
52057;SDS011;38063;53.210;6.504;2022-10-19T17:14:34;13.00;;;5.53;;
52057;SDS011;38063;53.210;6.504;2022-10-19T17:17:02;12.90;;;5.53;;